INDIA METEOROLOGICAL DEPARTMENT, R.M.C. NEW DELHI
Dated:18-01-2020
METARS


Ahmedabad  
VAAH 181700Z 36004KT 4000 FU NSC 16/08 Q1017 NOSIG=
Allahabad  
VEAB 181630Z 34005KT 0800 FG FEW025 SCT090 14/14 Q1019 NOSIG=
Aurangabad 
VAAU 181600Z VRB02KT 5000 HZ FEW020 20/14 Q1016 NOSIG=
Bangalore  
VOBL 181700Z 12013KT 6000 SCT012 SCT080 20/20 Q1018 NOSIG=
Baroda     
VABO 181600Z 02006KT 6000 NSC 21/08 Q1015 NOSIG=
Bhopal     
VABP 181700Z 02002KT 0050 FG VV/// 12/12 Q1019 NOSIG=
Bhubaneswar
VEBS 181700Z 00000KT 3000 BR NSC 21/20 Q1015 NOSIG=
Chennai    
VOMM 181700Z 06003KT 5000 BR FEW020 SCT100 26/23 Q1014 NOSIG=
Coimbatore 
VOCB 181700Z 08010KT 5000 BR SCT012 BKN080 25/20 Q1015 NOSIG=
Colombo    
VCBI 181710Z 02005KT CAVOK 27/24 Q1011 NOSIG=
Delhi      
VIDP 181700Z 00000KT 1200 R28/P2000 R29/P2000 BR FEW100 12/12 Q1019 NOSIG=
Gauhati    
VEGT 181700Z 00000KT 2500 BR FEW020 SCT100 19/17 Q1015 NOSIG=
Gaya       
VEGY 181700Z 00000KT 1100 BR SCT018 BKN100 15/14 Q1017 =
Goa        
VOGO 181700Z 01005KT 5000 HZ NSC 25/19 Q1012 NOSIG=
Hyderabad  
VOHS 181700Z 12006KT 6000 NSC 21/20 Q1017 NOSIG=
Indore     
VAID 181600Z 02004KT 3500 HZ NSC 15/12 Q1018 NOSIG=
Jabalpur   
VAJB 181600Z 04004KT 3000 HZ SCT025 18/12 Q1018=
Jaipur     
VIJP 181700Z VRB02KT 2000 HZ FEW030 SCT100 14/09 Q1019 NOSIG=
Kochi      
VOCI 181700Z 00000KT 4000 HZ SCT015 BKN080 28/24 Q1011 NOSIG=
Kolkata    
VECC 181700Z 00000KT 3200 HZ NSC 22/14 Q1014 NOSIG=
Kozhikode  
VOCL 181700Z 30003KT 5000 HZ FEW015 27/22 Q1011 NOSIG=
Lucknow    
VILK 181700Z VRB02KT 1200 R27/2000 RMID/2000 R09/2000 BR SCT018 OVC090 14/13 Q1018 NOSIG=
Madurai    
VOMD 181700Z 02004KT 6000 FEW018 SCT090 24/22 Q1013 NOSIG=
Mumbai     
VABB 181700Z 01005KT 2200 HZ NSC 24/16 Q1014 NOSIG=
Nagpur     
VANP 181700Z 00000KT 2000 BR NSC 19/18 Q1016 NOSIG=
Patna      
VEPT 181700Z 25004KT 1600 BR SCT018 SCT100 16/15 Q1016 NOSIG=
Raipur     
VERP 181700Z 33003KT 4000 HZ NSC 22/17 Q1016 NOSIG=
Surat     
VASU 181700Z 03006KT 4000 HZ NSC 19/11 Q1015 NOSIG=
Ranchi     
VERC 181700Z 00000KT 1700 BR SCT020 BKN100 19/16 Q1018 NOSIG=
Trichy     
VOTR 181700Z 02003KT 4000 BR SCT016 BKN080 24/23 Q1013 NOSIG=
Trivandrum 
VOTV 181700Z VRB02KT 3000 HZ SCT015 SCT080 29/24 Q1010 NOSIG=
Varanasi   
VEBN 181630Z 27003KT 1800 BR FEW025 SCT100 16/13 Q1017 NOSIG=
Vizag      
VOVZ 181700Z VRB02KT 4500 BR FEW018 23/20 Q1016 NOSIG=
Male       
VRMM 181700Z 09014KT 9999 FEW018 BKN270 29/24 Q1011 NOSIG=
Gan        
VRMG 181700Z 09005KT 9999 FEW018TCU BKN260 29/25 Q1011 NOSIG=
Kathmandu  
VNKT 181700Z NIL=
Dhaka      
VGHS 181700Z 00000KT 3500 HZ NSC 20/16 Q1015 NOSIG=
Colombo    
VCBI 181710Z 02005KT CAVOK 27/24 Q1011 NOSIG=
Karachi    
OPKC 181655Z 04006KT 6000 NSC 16/M01 Q1020 NOSIG=
Lahore     
OPLA 181655Z 00000KT 4000 FU FEW100 10/06 Q1020 NOSIG RMK QFE994 RMK A30.11=
Gorakhpur  
VEGK 181630Z VRB02KT 1000 BR SCT015 SCT080 15/15 Q1017 NOSIG=
Agra       
VIAG 181630Z 32003KT 0900 FG BKN015 BKN090 13/13 Q1019 NOSIG=
Bagdogra   
VEBD 181630Z VRB02KT 1500 BR FEW090 14/13 Q1015 NOSIG=
Gwalior    
VIGR 181630Z VRB01KT 1500 BR BKN015 SCT080 14/14 Q1019 BECMG 1000 BR=
Pune       
VAPO 181630Z VRB02KT 6000 SKC 21/12 Q1017 NOSIG=
Jamnagar   
VAJM 181630Z 36003KT 6000 SKC 17/10 Q1018 NOSIG=
Pathankot   
VIPK 181630Z 04003KT 6000 FEW030 SCT250 11/10 Q1020 NOSIG=